createdAt,value
2018-12-13T00:00:56.172Z,99.60
2018-12-13T00:03:27.206Z,99.60
2018-12-13T00:05:58.180Z,99.70
2018-12-13T00:08:27.613Z,99.70
2018-12-13T00:10:56.701Z,99.80
2018-12-13T00:13:25.722Z,99.90
2018-12-13T00:15:54.719Z,99.90
2018-12-13T00:18:24.262Z,99.90
2018-12-13T00:20:53.349Z,99.90
2018-12-13T00:23:22.458Z,99.90
2018-12-13T00:25:51.497Z,99.90
2018-12-13T00:28:20.499Z,99.90
2018-12-13T00:30:49.464Z,99.90
2018-12-13T00:33:18.476Z,99.90
2018-12-13T00:35:47.541Z,99.90
2018-12-13T00:38:16.571Z,99.90
2018-12-13T00:40:45.677Z,99.90
2018-12-13T00:43:14.729Z,99.90
2018-12-13T00:45:43.859Z,99.90
2018-12-13T00:48:12.899Z,99.90
2018-12-13T00:50:42.008Z,99.90
2018-12-13T00:53:11.011Z,99.90
2018-12-13T00:55:40.205Z,99.90
2018-12-13T00:58:09.259Z,99.80
2018-12-13T01:00:38.397Z,99.60
2018-12-13T01:03:07.428Z,99.60
2018-12-13T01:05:36.781Z,99.60
2018-12-13T01:08:05.768Z,99.60
2018-12-13T01:10:34.876Z,99.50
2018-12-13T01:13:04.018Z,99.20
2018-12-13T01:15:33.849Z,99.00
2018-12-13T01:18:04.101Z,98.90
2018-12-13T01:20:33.088Z,98.70
2018-12-13T01:23:02.158Z,98.50
2018-12-13T01:25:31.275Z,98.70
2018-12-13T01:28:00.271Z,98.70
2018-12-13T01:30:29.375Z,98.70
2018-12-13T01:32:58.396Z,98.70
2018-12-13T01:35:27.463Z,98.80
2018-12-13T01:37:56.444Z,98.60
2018-12-13T01:40:25.505Z,98.30
2018-12-13T01:42:54.597Z,98.10
2018-12-13T01:45:24.653Z,98.20
2018-12-13T01:47:53.777Z,98.50
2018-12-13T01:50:22.880Z,98.40
2018-12-13T01:52:52.051Z,98.50
2018-12-13T01:55:21.003Z,98.60
2018-12-13T01:57:51.150Z,98.60
2018-12-13T02:00:20.190Z,98.50
2018-12-13T02:02:49.436Z,98.60
2018-12-13T02:05:18.471Z,98.50
2018-12-13T02:07:48.567Z,98.70
2018-12-13T02:10:17.641Z,98.80
2018-12-13T02:12:46.761Z,98.80
2018-12-13T02:15:15.893Z,98.90
2018-12-13T02:17:45.018Z,98.90
2018-12-13T02:20:14.213Z,98.60
2018-12-13T02:22:43.301Z,98.40
2018-12-13T02:25:12.303Z,97.70
2018-12-13T02:27:41.406Z,98.10
2018-12-13T02:30:11.541Z,97.80
2018-12-13T02:32:41.318Z,97.70
2018-12-13T02:35:10.526Z,97.70
2018-12-13T02:37:39.678Z,97.80
2018-12-13T02:40:08.643Z,97.70
2018-12-13T02:42:37.690Z,97.60
2018-12-13T02:45:06.681Z,97.90
2018-12-13T02:47:36.060Z,97.70
2018-12-13T02:50:05.639Z,97.80
2018-12-13T02:52:34.722Z,97.60
2018-12-13T02:55:03.813Z,97.40
2018-12-13T02:57:32.808Z,97.60
2018-12-13T03:00:01.831Z,97.70
2018-12-13T03:02:32.979Z,97.70
2018-12-13T03:05:02.109Z,97.60
2018-12-13T03:07:32.608Z,97.50
2018-12-13T03:10:01.970Z,97.70
2018-12-13T03:12:31.270Z,97.60
2018-12-13T03:15:00.445Z,97.70
2018-12-13T03:17:29.465Z,97.50
2018-12-13T03:19:58.448Z,97.40
2018-12-13T03:22:28.413Z,97.40
2018-12-13T03:24:57.433Z,97.20
2018-12-13T03:27:26.446Z,97.30
2018-12-13T03:29:55.641Z,97.30
2018-12-13T03:32:24.687Z,97.30
2018-12-13T03:34:54.831Z,97.40
2018-12-13T03:37:23.905Z,97.60
2018-12-13T03:39:53.052Z,97.50
2018-12-13T03:42:22.136Z,97.60
2018-12-13T03:44:51.185Z,97.70
2018-12-13T03:47:20.192Z,97.70
2018-12-13T03:49:49.262Z,98.10
2018-12-13T03:52:18.246Z,97.60
2018-12-13T03:54:47.500Z,97.80
2018-12-13T03:57:16.565Z,97.70
2018-12-13T03:59:45.682Z,97.60
2018-12-13T04:02:14.846Z,97.60
2018-12-13T04:04:43.975Z,97.60
2018-12-13T04:07:13.002Z,97.60
2018-12-13T04:09:42.949Z,97.80
2018-12-13T04:12:11.982Z,97.80
2018-12-13T04:14:41.156Z,97.30
2018-12-13T04:17:10.150Z,97.10
2018-12-13T04:19:41.143Z,97.00
2018-12-13T04:22:10.114Z,97.20
2018-12-13T04:24:39.178Z,97.00
2018-12-13T04:27:08.303Z,97.00
2018-12-13T04:29:37.433Z,97.10
2018-12-13T04:32:06.440Z,97.20
2018-12-13T04:34:35.437Z,97.20
2018-12-13T04:37:04.402Z,97.10
2018-12-13T04:39:33.570Z,97.00
2018-12-13T04:42:02.829Z,97.20
2018-12-13T04:44:31.813Z,97.20
2018-12-13T04:47:00.871Z,97.60
2018-12-13T04:49:29.927Z,97.20
2018-12-13T04:51:58.946Z,97.10
2018-12-13T04:54:28.065Z,97.00
2018-12-13T04:56:57.060Z,96.70
2018-12-13T04:59:26.071Z,96.70
2018-12-13T05:01:55.125Z,96.50
2018-12-13T05:04:24.146Z,96.70
2018-12-13T05:06:53.206Z,96.50
2018-12-13T05:09:22.303Z,96.60
2018-12-13T05:11:51.305Z,96.40
2018-12-13T05:14:20.329Z,96.10
2018-12-13T05:16:49.337Z,96.10
2018-12-13T05:19:18.371Z,96.40
2018-12-13T05:21:47.502Z,96.20
2018-12-13T05:24:16.566Z,96.10
2018-12-13T05:26:45.606Z,96.30
2018-12-13T05:29:14.758Z,96.30
2018-12-13T05:31:43.942Z,96.20
2018-12-13T05:34:13.015Z,95.80
2018-12-13T05:36:41.999Z,96.00
2018-12-13T05:39:11.089Z,95.90
2018-12-13T05:41:40.148Z,95.70
2018-12-13T05:44:09.177Z,95.90
2018-12-13T05:46:38.369Z,95.90
2018-12-13T05:49:07.355Z,96.20
2018-12-13T05:51:36.389Z,96.20
2018-12-13T05:54:05.353Z,95.90
2018-12-13T05:56:34.364Z,96.00
2018-12-13T05:59:03.352Z,95.90
2018-12-13T06:01:32.360Z,95.90
2018-12-13T06:04:01.336Z,95.90
2018-12-13T06:06:30.508Z,96.00
2018-12-13T06:08:59.577Z,95.90
2018-12-13T06:11:28.578Z,96.40
2018-12-13T06:13:57.553Z,96.10
2018-12-13T06:16:26.744Z,95.90
2018-12-13T06:18:55.724Z,96.00
2018-12-13T06:21:24.762Z,96.20
2018-12-13T06:23:53.724Z,96.10
2018-12-13T06:26:22.939Z,95.80
2018-12-13T06:28:52.062Z,95.80
2018-12-13T06:31:21.050Z,95.70
2018-12-13T06:33:50.222Z,95.60
2018-12-13T06:36:19.224Z,95.10
2018-12-13T06:38:48.778Z,95.20
2018-12-13T06:41:17.909Z,95.40
2018-12-13T06:43:46.956Z,95.30
2018-12-13T06:46:15.987Z,95.10
2018-12-13T06:48:44.954Z,95.10
2018-12-13T06:51:14.020Z,95.30
2018-12-13T06:53:43.012Z,95.40
2018-12-13T06:56:12.106Z,95.40
2018-12-13T06:58:41.122Z,95.40
2018-12-13T07:01:10.181Z,95.70
2018-12-13T07:03:39.323Z,95.70
2018-12-13T07:06:08.370Z,95.70
2018-12-13T07:08:37.374Z,95.70
2018-12-13T07:11:06.393Z,95.50
2018-12-13T07:13:35.542Z,95.70
2018-12-13T07:16:04.677Z,95.80
2018-12-13T07:18:33.862Z,95.80
2018-12-13T07:21:02.910Z,95.80
2018-12-13T07:23:32.017Z,95.40
2018-12-13T07:26:01.048Z,95.80
2018-12-13T07:28:30.294Z,95.80
2018-12-13T07:30:59.317Z,95.60
2018-12-13T07:33:28.346Z,95.80
2018-12-13T07:35:57.343Z,95.80
2018-12-13T07:38:26.484Z,95.50
2018-12-13T07:40:55.695Z,95.30
2018-12-13T07:43:24.692Z,95.70
2018-12-13T07:45:53.683Z,95.40
2018-12-13T07:48:23.803Z,95.40
2018-12-13T07:50:52.808Z,94.80
2018-12-13T07:53:21.845Z,95.00
2018-12-13T07:55:50.841Z,95.10
2018-12-13T07:58:19.892Z,94.90
2018-12-13T08:00:48.990Z,95.10
2018-12-13T08:03:18.077Z,94.80
2018-12-13T08:05:47.129Z,94.60
2018-12-13T08:08:20.787Z,94.50
2018-12-13T08:10:47.205Z,94.70
2018-12-13T08:13:16.281Z,94.80
2018-12-13T08:15:45.357Z,94.70
2018-12-13T08:18:14.314Z,95.00
2018-12-13T08:20:45.318Z,94.90
2018-12-13T08:23:14.448Z,95.00
2018-12-13T08:25:43.478Z,95.00
2018-12-13T08:28:12.487Z,94.90
2018-12-13T08:30:41.498Z,95.00
2018-12-13T08:33:10.589Z,94.70
2018-12-13T08:35:39.545Z,94.40
2018-12-13T08:38:08.642Z,94.50
2018-12-13T08:40:38.851Z,94.70
2018-12-13T08:43:08.093Z,94.50
2018-12-13T08:45:37.239Z,94.90
2018-12-13T08:48:06.208Z,94.50
2018-12-13T08:50:35.213Z,94.40
2018-12-13T08:53:04.242Z,94.40
2018-12-13T08:55:33.295Z,94.40
2018-12-13T08:58:02.333Z,94.40
2018-12-13T09:00:31.462Z,94.60
2018-12-13T09:03:00.578Z,94.40
2018-12-13T09:05:29.601Z,94.30
2018-12-13T09:07:58.689Z,94.10
2018-12-13T09:10:27.782Z,94.30
2018-12-13T09:12:56.874Z,94.10
2018-12-13T09:15:25.880Z,94.50
2018-12-13T09:17:54.926Z,94.10
2018-12-13T09:20:24.024Z,94.40
2018-12-13T09:22:53.052Z,94.20
2018-12-13T09:25:22.141Z,94.00
2018-12-13T09:27:51.181Z,93.90
2018-12-13T09:30:20.173Z,93.80
2018-12-13T09:32:49.297Z,94.10
2018-12-13T09:35:18.353Z,94.10
2018-12-13T09:37:47.886Z,94.30
2018-12-13T09:40:17.130Z,93.70
2018-12-13T09:42:46.236Z,93.90
2018-12-13T09:45:15.300Z,94.20
2018-12-13T09:47:44.373Z,94.30
2018-12-13T09:50:13.498Z,94.30
2018-12-13T09:52:42.495Z,93.80
2018-12-13T09:55:11.457Z,93.70
2018-12-13T09:57:40.513Z,94.00
2018-12-13T10:00:10.620Z,93.50
2018-12-13T10:02:39.707Z,93.60
2018-12-13T10:05:08.843Z,93.40
2018-12-13T10:07:38.029Z,93.80
2018-12-13T10:10:07.006Z,94.00
2018-12-13T10:12:35.991Z,93.90
2018-12-13T10:15:05.470Z,93.60
2018-12-13T10:17:35.604Z,93.60
2018-12-13T10:20:04.766Z,93.30
2018-12-13T10:22:33.914Z,93.10
2018-12-13T10:25:03.018Z,93.50
2018-12-13T10:27:32.146Z,93.70
2018-12-13T10:30:01.289Z,93.40
2018-12-13T10:32:30.466Z,93.60
2018-12-13T10:34:59.615Z,93.50
2018-12-13T10:37:28.649Z,93.40
2018-12-13T10:39:57.673Z,93.80
2018-12-13T10:42:26.898Z,94.10
2018-12-13T10:44:56.006Z,93.70
2018-12-13T10:47:24.997Z,93.50
2018-12-13T10:49:54.189Z,93.60
2018-12-13T10:52:23.160Z,93.80
2018-12-13T10:54:52.170Z,93.40
2018-12-13T10:57:21.209Z,93.40
2018-12-13T10:59:50.252Z,93.40
2018-12-13T11:02:24.536Z,93.40
2018-12-13T11:04:53.654Z,92.90
2018-12-13T11:07:22.780Z,93.40
2018-12-13T11:09:51.757Z,93.40
2018-12-13T11:12:20.993Z,93.60
2018-12-13T11:14:50.056Z,93.50
2018-12-13T11:17:19.095Z,93.30
2018-12-13T11:19:48.189Z,93.10
2018-12-13T11:22:17.226Z,93.30
2018-12-13T11:24:46.230Z,93.50
2018-12-13T11:27:26.474Z,93.30
2018-12-13T11:30:16.553Z,93.20
2018-12-13T11:32:45.848Z,93.40
2018-12-13T11:35:14.989Z,93.70
2018-12-13T11:37:44.169Z,93.00
2018-12-13T11:40:13.275Z,93.00
2018-12-13T11:42:42.522Z,93.10
2018-12-13T11:45:11.877Z,92.80
2018-12-13T11:47:41.369Z,92.60
2018-12-13T11:50:11.755Z,93.00
2018-12-13T11:52:42.736Z,92.80
2018-12-13T11:55:21.915Z,92.80
2018-12-13T11:57:50.902Z,92.50
2018-12-13T12:00:19.976Z,93.00
2018-12-13T12:02:50.033Z,92.60
2018-12-13T12:05:19.099Z,92.60
2018-12-13T12:07:48.251Z,92.60
2018-12-13T12:10:17.276Z,92.50
2018-12-13T12:12:46.381Z,92.40
2018-12-13T12:15:15.431Z,92.50
2018-12-13T12:17:44.474Z,92.50
2018-12-13T12:20:13.557Z,92.10
2018-12-13T12:22:42.694Z,92.40
2018-12-13T12:25:11.737Z,92.50
2018-12-13T12:27:40.794Z,92.30
2018-12-13T12:30:09.829Z,92.50
2018-12-13T12:32:38.930Z,92.70
2018-12-13T12:35:07.964Z,92.50
2018-12-13T12:37:37.222Z,92.20
2018-12-13T12:40:07.881Z,92.10
2018-12-13T12:42:36.984Z,92.30
2018-12-13T12:45:06.936Z,92.00
2018-12-13T12:47:35.903Z,91.70
2018-12-13T12:50:06.446Z,92.00
2018-12-13T12:52:35.516Z,91.90
2018-12-13T12:55:04.718Z,92.20
2018-12-13T12:57:33.759Z,92.60
2018-12-13T13:00:02.794Z,92.30
2018-12-13T13:02:33.217Z,92.70
2018-12-13T13:05:02.258Z,92.10
2018-12-13T13:07:31.546Z,92.00
2018-12-13T13:10:00.584Z,92.00
2018-12-13T13:12:29.633Z,92.00
2018-12-13T13:14:58.736Z,91.90
2018-12-13T13:17:27.734Z,92.00
2018-12-13T13:19:56.753Z,91.40
2018-12-13T13:22:25.801Z,91.80
2018-12-13T13:24:54.968Z,91.70
2018-12-13T13:27:24.079Z,92.10
2018-12-13T13:29:53.269Z,91.80
2018-12-13T13:32:22.338Z,91.80
2018-12-13T13:34:51.430Z,91.90
2018-12-13T13:37:20.495Z,92.00
2018-12-13T13:39:49.826Z,91.50
2018-12-13T13:42:18.985Z,92.00
2018-12-13T13:44:50.113Z,92.10
2018-12-13T13:47:19.192Z,91.70
2018-12-13T13:49:50.195Z,91.60
2018-12-13T13:52:19.318Z,91.80
2018-12-13T13:54:48.411Z,91.50
2018-12-13T13:57:17.465Z,92.00
2018-12-13T13:59:46.600Z,92.20
2018-12-13T14:02:15.709Z,92.20
2018-12-13T14:04:44.729Z,92.60
2018-12-13T14:07:13.914Z,92.40
2018-12-13T14:09:42.956Z,92.80
2018-12-13T14:12:11.992Z,92.60
2018-12-13T14:14:41.038Z,92.50
2018-12-13T14:17:10.178Z,92.20
2018-12-13T14:19:39.262Z,91.70
2018-12-13T14:22:08.366Z,92.00
2018-12-13T14:24:37.780Z,92.20
2018-12-13T14:27:06.997Z,92.20
2018-12-13T14:29:36.196Z,92.40
2018-12-13T14:32:05.384Z,92.50
2018-12-13T14:34:34.474Z,91.80
2018-12-13T14:37:03.569Z,92.10
2018-12-13T14:39:32.641Z,92.10
2018-12-13T14:42:05.171Z,92.20
2018-12-13T14:44:42.464Z,92.40
2018-12-13T14:47:11.540Z,92.10
2018-12-13T14:49:40.670Z,92.10
2018-12-13T14:52:09.682Z,91.70
2018-12-13T14:54:38.783Z,92.30
2018-12-13T14:57:07.826Z,92.30
2018-12-13T14:59:37.967Z,92.40
2018-12-13T15:02:07.026Z,92.20
2018-12-13T15:04:36.117Z,92.30
2018-12-13T15:07:06.172Z,92.20
2018-12-13T15:09:35.173Z,92.40
2018-12-13T15:12:04.242Z,92.60
2018-12-13T15:14:33.489Z,92.40
2018-12-13T15:17:02.646Z,92.30
2018-12-13T15:19:31.758Z,92.20
2018-12-13T15:22:00.913Z,92.30
2018-12-13T15:24:30.000Z,92.30
2018-12-13T15:26:59.082Z,92.80
2018-12-13T15:29:29.209Z,92.50
2018-12-13T15:31:59.397Z,91.90
2018-12-13T15:34:28.853Z,92.50
2018-12-13T15:36:57.930Z,92.20
2018-12-13T15:39:26.993Z,92.60
2018-12-13T15:41:56.120Z,92.20
2018-12-13T15:44:25.175Z,92.50
2018-12-13T15:46:54.233Z,92.30
2018-12-13T15:49:23.934Z,92.10
2018-12-13T15:51:52.966Z,92.40
2018-12-13T15:54:21.985Z,92.00
2018-12-13T15:56:50.997Z,92.00
2018-12-13T15:59:20.019Z,92.20
2018-12-13T16:01:49.062Z,92.00
2018-12-13T16:04:18.116Z,91.40
2018-12-13T16:06:47.095Z,91.60
2018-12-13T16:09:16.192Z,91.60
2018-12-13T16:11:45.173Z,91.60
2018-12-13T16:14:14.274Z,91.60
2018-12-13T16:16:43.314Z,91.40
2018-12-13T16:19:12.443Z,90.60
2018-12-13T16:21:41.529Z,91.00
2018-12-13T16:24:10.502Z,90.80
2018-12-13T16:26:39.549Z,91.10
2018-12-13T16:29:08.629Z,91.20
2018-12-13T16:31:37.665Z,90.90
2018-12-13T16:34:06.705Z,91.40
2018-12-13T16:36:35.742Z,91.20
2018-12-13T16:39:06.437Z,91.40
2018-12-13T16:41:37.497Z,91.50
2018-12-13T16:44:06.749Z,92.20
2018-12-13T16:46:35.801Z,91.70
2018-12-13T16:49:04.989Z,91.90
2018-12-13T16:51:34.017Z,91.80
2018-12-13T16:54:02.982Z,91.90
2018-12-13T16:56:32.059Z,91.80
2018-12-13T16:59:01.666Z,91.80
2018-12-13T17:01:30.626Z,92.00
2018-12-13T17:03:59.652Z,92.00
2018-12-13T17:06:28.619Z,91.50
2018-12-13T17:08:57.719Z,91.90
2018-12-13T17:11:26.728Z,91.80
2018-12-13T17:13:55.790Z,92.20
2018-12-13T17:16:24.843Z,91.60
2018-12-13T17:18:54.077Z,91.90
2018-12-13T17:21:23.170Z,92.10
2018-12-13T17:23:52.222Z,92.30
2018-12-13T17:26:21.214Z,92.20
2018-12-13T17:28:50.282Z,92.40
2018-12-13T17:31:19.539Z,92.30
2018-12-13T17:33:48.757Z,92.00
2018-12-13T17:36:17.817Z,91.80
2018-12-13T17:38:47.107Z,91.90
2018-12-13T17:41:16.182Z,92.50
2018-12-13T17:43:45.483Z,92.40
2018-12-13T17:46:14.628Z,92.30
2018-12-13T17:48:43.678Z,92.10
2018-12-13T17:51:12.685Z,92.20
2018-12-13T17:53:41.762Z,92.30
2018-12-13T17:56:10.837Z,91.80
2018-12-13T17:58:40.112Z,92.10
2018-12-13T18:01:09.185Z,92.20
2018-12-13T18:03:38.211Z,92.10
2018-12-13T18:06:07.240Z,92.10
2018-12-13T18:08:36.289Z,92.50
2018-12-13T18:11:05.394Z,92.30
2018-12-13T18:13:34.484Z,92.50
2018-12-13T18:16:03.565Z,92.60
2018-12-13T18:18:32.592Z,92.50
2018-12-13T18:21:01.708Z,92.40
2018-12-13T18:23:31.362Z,92.60
2018-12-13T18:26:00.404Z,92.50
2018-12-13T18:28:29.476Z,92.20
2018-12-13T18:30:58.608Z,92.20
2018-12-13T18:33:27.654Z,92.30
2018-12-13T18:35:56.678Z,92.40
2018-12-13T18:38:25.696Z,92.40
2018-12-13T18:40:54.775Z,92.70
2018-12-13T18:43:24.025Z,92.60
2018-12-13T18:45:53.059Z,92.50
2018-12-13T18:48:22.120Z,92.60
2018-12-13T18:50:51.193Z,92.40
2018-12-13T18:53:20.326Z,92.10
2018-12-13T18:55:49.352Z,92.10
2018-12-13T18:58:18.436Z,92.00
2018-12-13T19:00:47.483Z,92.40
2018-12-13T19:03:16.493Z,92.10
2018-12-13T19:05:45.618Z,92.30
2018-12-13T19:08:14.837Z,92.40
2018-12-13T19:10:44.089Z,92.10
2018-12-13T19:13:13.240Z,92.00
2018-12-13T19:15:44.537Z,91.20
2018-12-13T19:18:22.600Z,91.20
2018-12-13T19:20:55.834Z,91.60
2018-12-13T19:23:28.145Z,91.60
2018-12-13T19:25:59.304Z,91.50
2018-12-13T19:28:28.349Z,91.70
2018-12-13T19:30:57.443Z,91.70
2018-12-13T19:33:26.545Z,91.50
2018-12-13T19:35:55.585Z,91.50
2018-12-13T19:38:24.630Z,91.50
2018-12-13T19:40:53.743Z,91.80
2018-12-13T19:43:22.785Z,91.90
2018-12-13T19:45:51.985Z,91.90
2018-12-13T19:48:21.085Z,91.70
2018-12-13T19:50:50.586Z,91.60
2018-12-13T19:53:20.232Z,91.10
2018-12-13T19:55:49.250Z,91.20
2018-12-13T19:58:18.281Z,91.20
2018-12-13T20:00:47.346Z,91.50
2018-12-13T20:03:16.520Z,91.90
2018-12-13T20:05:45.606Z,91.60
2018-12-13T20:08:14.657Z,91.70
2018-12-13T20:10:43.664Z,91.60
2018-12-13T20:13:12.811Z,91.50
2018-12-13T20:15:41.852Z,91.50
2018-12-13T20:18:10.891Z,91.60
2018-12-13T20:20:39.921Z,91.70
2018-12-13T20:23:09.250Z,91.70
2018-12-13T20:25:38.414Z,91.90
2018-12-13T20:28:07.520Z,91.80
2018-12-13T20:30:36.827Z,91.50
2018-12-13T20:33:05.834Z,91.30
2018-12-13T20:35:34.947Z,91.50
2018-12-13T20:38:03.988Z,91.60
2018-12-13T20:40:33.043Z,91.40
2018-12-13T20:43:02.082Z,91.40
2018-12-13T20:45:31.235Z,91.40
2018-12-13T20:48:00.277Z,91.20
2018-12-13T20:50:29.382Z,91.40
2018-12-13T20:52:58.518Z,91.40
2018-12-13T20:55:27.631Z,91.30
2018-12-13T20:57:56.916Z,91.70
2018-12-13T21:00:26.004Z,91.80
2018-12-13T21:02:55.100Z,91.40
2018-12-13T21:05:24.268Z,91.80
2018-12-13T21:07:57.769Z,91.90
2018-12-13T21:10:26.862Z,91.80
2018-12-13T21:12:56.310Z,91.80
2018-12-13T21:15:25.530Z,91.90
2018-12-13T21:17:54.628Z,91.90
2018-12-13T21:20:23.770Z,92.10
2018-12-13T21:22:52.891Z,91.90
2018-12-13T21:25:21.958Z,91.90
2018-12-13T21:27:51.022Z,92.20
2018-12-13T21:30:20.229Z,92.30
2018-12-13T21:32:49.558Z,91.90
2018-12-13T21:35:18.690Z,91.90
2018-12-13T21:37:47.913Z,91.90
2018-12-13T21:40:16.981Z,92.20
2018-12-13T21:42:46.133Z,92.10
2018-12-13T21:45:15.250Z,92.30
2018-12-13T21:47:44.541Z,92.30
2018-12-13T21:50:13.685Z,92.10
2018-12-13T21:52:43.370Z,92.20
2018-12-13T21:55:12.402Z,92.00
2018-12-13T21:57:41.554Z,91.80
2018-12-13T22:00:11.339Z,91.70
2018-12-13T22:02:42.682Z,91.90
2018-12-13T22:05:11.760Z,92.00
2018-12-13T22:07:40.902Z,92.30
2018-12-13T22:10:10.089Z,92.30
2018-12-13T22:12:39.355Z,92.30
2018-12-13T22:15:11.459Z,92.30
2018-12-13T22:17:40.733Z,92.40
2018-12-13T22:20:09.869Z,92.50
2018-12-13T22:22:38.902Z,92.30
2018-12-13T22:25:08.189Z,92.20
2018-12-13T22:27:37.281Z,92.00
2018-12-13T22:30:07.025Z,91.90
2018-12-13T22:32:36.141Z,91.70
2018-12-13T22:35:05.204Z,91.60
2018-12-13T22:37:34.271Z,91.40
2018-12-13T22:40:03.490Z,91.20
2018-12-13T22:42:32.630Z,91.30
2018-12-13T22:45:01.691Z,91.70
2018-12-13T22:47:30.874Z,92.00
2018-12-13T22:50:00.057Z,92.20
2018-12-13T22:52:29.201Z,92.70
2018-12-13T22:54:58.346Z,92.10
2018-12-13T22:57:27.415Z,92.60
2018-12-13T22:59:56.623Z,92.20
2018-12-13T23:02:25.689Z,92.40
2018-12-13T23:04:54.928Z,92.20
2018-12-13T23:07:24.006Z,92.60
2018-12-13T23:09:53.232Z,92.60
2018-12-13T23:12:22.305Z,92.70
2018-12-13T23:14:51.365Z,92.70
2018-12-13T23:17:20.626Z,92.80
2018-12-13T23:19:49.806Z,92.70
2018-12-13T23:22:18.931Z,92.60
2018-12-13T23:24:47.953Z,92.50
2018-12-13T23:27:17.013Z,92.50
2018-12-13T23:29:46.161Z,92.70
2018-12-13T23:32:15.305Z,92.60
2018-12-13T23:34:44.460Z,92.70
2018-12-13T23:37:13.704Z,92.30
2018-12-13T23:39:42.753Z,92.80
2018-12-13T23:42:11.861Z,92.70
2018-12-13T23:44:40.950Z,92.50
2018-12-13T23:47:09.978Z,92.50
2018-12-13T23:49:38.974Z,92.70
2018-12-13T23:52:08.072Z,92.70
2018-12-13T23:54:37.434Z,92.80
2018-12-13T23:57:06.481Z,92.70
2018-12-13T23:59:35.493Z,93.30
